Terminal Aerodrome Forecast
Issued by NWS Detroit/Pontiac, MI

Current Version | Previous Version | Text Only | Print | Product List | Glossary On
Versions: 1 2 3 4 5 6 7 8 9 10 11 12 13 14 15 16 17 18 19 20 21 22 23 24 25 26 27 28 29
000
FTUS43 KDTX 302335
TAFDTW
TAF
KDTW 302335Z 0100/0206 24008KT P6SM SCT035 OVC070
      TEMPO 0100/0102 4SM -SHRA OVC025
     FM010400 28005KT P6SM BKN070
     FM010700 28005KT P6SM BKN025
     FM011000 30005KT 5SM BR OVC007
     FM011400 30005KT P6SM BKN020
     FM011700 30005KT P6SM BKN035
     FM012000 33007KT P6SM SCT045=

USA.gov is the U.S. government's official web portal to all federal, state and local government web resources and services.